createdAt,value
2017-10-11T00:02:12.224Z,90.29
2017-10-11T00:04:40.387Z,90.27
2017-10-11T00:07:08.346Z,90.20
2017-10-11T00:09:36.439Z,90.09
2017-10-11T00:12:04.511Z,90.38
2017-10-11T00:14:32.691Z,90.21
2017-10-11T00:17:00.803Z,90.52
2017-10-11T00:19:28.831Z,90.59
2017-10-11T00:21:57.039Z,90.48
2017-10-11T00:24:26.860Z,90.19
2017-10-11T00:26:54.958Z,90.14
2017-10-11T00:29:23.099Z,89.99
2017-10-11T00:31:51.269Z,90.10
2017-10-11T00:34:19.342Z,89.55
2017-10-11T00:36:47.713Z,89.81
2017-10-11T00:39:15.835Z,89.73
2017-10-11T00:41:43.920Z,89.64
2017-10-11T00:44:11.713Z,89.69
2017-10-11T00:46:40.381Z,89.71
2017-10-11T00:49:08.393Z,89.57
2017-10-11T00:51:36.238Z,89.80
2017-10-11T00:54:04.755Z,89.96
2017-10-11T00:56:32.539Z,89.74
2017-10-11T00:59:00.380Z,89.65
2017-10-11T01:01:28.161Z,89.84
2017-10-11T01:03:55.974Z,89.92
2017-10-11T01:06:23.952Z,89.85
2017-10-11T01:08:51.788Z,90.01
2017-10-11T01:11:22.974Z,90.03
2017-10-11T01:13:51.891Z,90.13
2017-10-11T01:16:20.840Z,89.99
2017-10-11T01:18:48.687Z,90.24
2017-10-11T01:21:16.687Z,90.67
2017-10-11T01:23:44.572Z,90.59
2017-10-11T01:26:13.570Z,90.70
2017-10-11T01:28:41.498Z,90.85
2017-10-11T01:31:09.945Z,90.75
2017-10-11T01:33:37.737Z,90.66
2017-10-11T01:36:06.884Z,90.68
2017-10-11T01:38:35.621Z,90.40
2017-10-11T01:41:04.901Z,90.45
2017-10-11T01:43:33.219Z,90.57
2017-10-11T01:46:02.402Z,90.57
2017-10-11T01:48:30.162Z,90.59
2017-10-11T01:50:57.936Z,90.31
2017-10-11T01:53:25.812Z,90.15
2017-10-11T01:55:53.734Z,90.17
2017-10-11T01:58:21.709Z,90.18
2017-10-11T02:00:49.710Z,90.12
2017-10-11T02:03:17.712Z,89.91
2017-10-11T02:05:45.737Z,89.67
2017-10-11T02:08:13.827Z,89.66
2017-10-11T02:10:44.812Z,89.39
2017-10-11T02:13:12.627Z,89.14
2017-10-11T02:15:40.551Z,89.26
2017-10-11T02:18:09.102Z,89.48
2017-10-11T02:20:37.025Z,89.33
2017-10-11T02:23:04.906Z,89.14
2017-10-11T02:25:32.714Z,89.08
2017-10-11T02:28:01.634Z,89.00
2017-10-11T02:30:29.700Z,88.92
2017-10-11T02:32:57.565Z,88.90
2017-10-11T02:35:25.397Z,88.95
2017-10-11T02:37:53.430Z,88.91
2017-10-11T02:40:21.299Z,88.75
2017-10-11T02:42:49.264Z,89.13
2017-10-11T02:45:17.196Z,88.97
2017-10-11T02:47:45.099Z,88.86
2017-10-11T02:50:13.546Z,88.75
2017-10-11T02:52:42.164Z,88.73
2017-10-11T02:55:10.106Z,88.83
2017-10-11T02:57:38.028Z,88.79
2017-10-11T03:00:05.840Z,88.99
2017-10-11T03:02:34.155Z,88.94
2017-10-11T03:05:02.906Z,89.00
2017-10-11T03:07:31.594Z,89.17
2017-10-11T03:09:59.470Z,89.15
2017-10-11T03:12:27.325Z,89.14
2017-10-11T03:14:55.195Z,89.23
2017-10-11T03:17:23.100Z,88.97
2017-10-11T03:19:51.038Z,89.00
2017-10-11T03:22:18.925Z,89.07
2017-10-11T03:24:46.806Z,88.95
2017-10-11T03:27:15.653Z,88.93
2017-10-11T03:29:43.605Z,89.07
2017-10-11T03:32:11.413Z,89.06
2017-10-11T03:34:39.265Z,88.73
2017-10-11T03:37:07.175Z,88.41
2017-10-11T03:39:35.078Z,88.66
2017-10-11T03:42:04.033Z,88.53
2017-10-11T03:44:31.944Z,88.49
2017-10-11T03:46:59.800Z,88.42
2017-10-11T03:49:27.712Z,88.36
2017-10-11T03:51:55.638Z,88.32
2017-10-11T03:54:23.593Z,88.42
2017-10-11T03:56:51.585Z,88.43
2017-10-11T03:59:19.421Z,88.06
2017-10-11T04:01:47.400Z,88.13
2017-10-11T04:04:15.317Z,88.07
2017-10-11T04:06:43.196Z,88.02
2017-10-11T04:09:11.254Z,88.20
2017-10-11T04:11:39.260Z,88.46
2017-10-11T04:14:07.126Z,88.28
2017-10-11T04:16:35.952Z,88.47
2017-10-11T04:19:03.904Z,88.51
2017-10-11T04:21:31.771Z,88.47
2017-10-11T04:23:59.759Z,88.51
2017-10-11T04:26:27.968Z,88.42
2017-10-11T04:28:55.958Z,88.74
2017-10-11T04:31:24.298Z,88.79
2017-10-11T04:33:52.277Z,88.97
2017-10-11T04:36:20.229Z,88.88
2017-10-11T04:38:48.087Z,88.97
2017-10-11T04:41:16.082Z,89.04
2017-10-11T04:43:44.075Z,88.99
2017-10-11T04:46:12.040Z,88.99
2017-10-11T04:48:39.914Z,88.92
2017-10-11T04:51:07.769Z,88.87
2017-10-11T04:53:35.681Z,89.01
2017-10-11T04:56:03.572Z,89.20
2017-10-11T04:58:31.494Z,89.43
2017-10-11T05:00:59.320Z,89.14
2017-10-11T05:03:27.377Z,89.08
2017-10-11T05:05:55.316Z,89.12
2017-10-11T05:08:23.099Z,89.38
2017-10-11T05:10:51.012Z,89.93
2017-10-11T05:13:18.905Z,90.28
2017-10-11T05:15:46.734Z,90.26
2017-10-11T05:18:14.434Z,90.36
2017-10-11T05:20:42.239Z,90.50
2017-10-11T05:23:10.655Z,90.52
2017-10-11T05:25:38.567Z,90.65
2017-10-11T05:28:06.438Z,90.54
2017-10-11T05:30:34.269Z,90.61
2017-10-11T05:33:02.180Z,90.55
2017-10-11T05:35:30.095Z,90.28
2017-10-11T05:37:57.795Z,90.11
2017-10-11T05:40:25.486Z,90.04
2017-10-11T05:42:53.376Z,89.67
2017-10-11T05:45:21.900Z,89.76
2017-10-11T05:47:49.801Z,89.78
2017-10-11T05:50:18.184Z,89.94
2017-10-11T05:52:45.971Z,89.55
2017-10-11T05:55:13.991Z,89.64
2017-10-11T05:57:41.893Z,89.85
2017-10-11T06:00:09.743Z,89.90
2017-10-11T06:02:37.638Z,89.82
2017-10-11T06:05:05.529Z,89.95
2017-10-11T06:07:33.403Z,89.39
2017-10-11T06:10:01.251Z,89.49
2017-10-11T06:12:30.114Z,89.55
2017-10-11T06:14:58.104Z,89.77
2017-10-11T06:17:26.905Z,89.91
2017-10-11T06:19:55.137Z,89.99
2017-10-11T06:22:23.099Z,90.09
2017-10-11T06:24:50.926Z,90.33
2017-10-11T06:27:18.893Z,90.69
2017-10-11T06:29:47.204Z,90.97
2017-10-11T06:32:15.341Z,91.04
2017-10-11T06:34:43.229Z,91.09
2017-10-11T06:37:11.213Z,90.97
2017-10-11T06:39:39.155Z,90.91
2017-10-11T06:42:07.652Z,90.96
2017-10-11T06:44:35.783Z,91.02
2017-10-11T06:47:03.699Z,91.08
2017-10-11T06:49:31.568Z,91.04
2017-10-11T06:51:59.511Z,91.07
2017-10-11T06:54:27.664Z,90.76
2017-10-11T06:56:55.564Z,90.82
2017-10-11T06:59:23.369Z,90.63
2017-10-11T07:01:51.200Z,90.46
2017-10-11T07:04:19.047Z,90.30
2017-10-11T07:06:46.868Z,90.38
2017-10-11T07:09:15.994Z,90.08
2017-10-11T07:11:44.089Z,90.16
2017-10-11T07:14:12.932Z,90.29
2017-10-11T07:16:40.883Z,90.12
2017-10-11T07:19:08.842Z,90.16
2017-10-11T07:21:36.818Z,90.28
2017-10-11T07:24:05.047Z,90.43
2017-10-11T07:26:33.160Z,90.38
2017-10-11T07:29:01.354Z,90.45
2017-10-11T07:31:29.522Z,90.40
2017-10-11T07:33:57.583Z,90.54
2017-10-11T07:36:25.674Z,90.67
2017-10-11T07:38:53.901Z,90.45
2017-10-11T07:41:22.201Z,90.59
2017-10-11T07:43:50.275Z,90.60
2017-10-11T07:46:18.415Z,90.34
2017-10-11T07:48:46.535Z,90.44
2017-10-11T07:51:14.653Z,89.75
2017-10-11T07:53:42.763Z,89.62
2017-10-11T07:56:11.742Z,89.71
2017-10-11T07:58:40.145Z,89.20
2017-10-11T08:01:08.538Z,89.25
2017-10-11T08:03:37.199Z,88.93
2017-10-11T08:06:05.465Z,88.55
2017-10-11T08:08:33.708Z,88.34
2017-10-11T08:11:02.436Z,88.76
2017-10-11T08:13:30.674Z,88.88
2017-10-11T08:15:58.990Z,88.65
2017-10-11T08:18:27.472Z,88.64
2017-10-11T08:20:56.379Z,88.59
2017-10-11T08:23:24.484Z,88.42
2017-10-11T08:25:52.555Z,87.97
2017-10-11T08:28:20.783Z,87.88
2017-10-11T08:30:49.578Z,87.29
2017-10-11T08:33:17.981Z,87.42
2017-10-11T08:35:48.048Z,87.46
2017-10-11T08:38:17.303Z,87.04
2017-10-11T08:40:45.404Z,87.02
2017-10-11T08:43:13.349Z,86.94
2017-10-11T08:45:41.471Z,86.66
2017-10-11T08:48:09.535Z,86.84
2017-10-11T08:50:37.776Z,86.33
2017-10-11T08:53:05.923Z,86.38
2017-10-11T08:55:34.535Z,86.34
2017-10-11T08:58:03.862Z,86.35
2017-10-11T09:00:31.966Z,86.51
2017-10-11T09:03:00.293Z,85.64
2017-10-11T09:05:28.570Z,85.78
2017-10-11T09:07:56.677Z,84.93
2017-10-11T09:10:24.858Z,85.16
2017-10-11T09:12:53.060Z,84.86
2017-10-11T09:15:21.930Z,83.73
2017-10-11T09:17:50.208Z,83.90
2017-10-11T09:20:18.420Z,84.04
2017-10-11T09:22:46.416Z,82.75
2017-10-11T09:25:14.585Z,82.18
2017-10-11T09:27:42.740Z,82.47
2017-10-11T09:30:10.880Z,82.74
2017-10-11T09:32:39.037Z,81.68
2017-10-11T09:35:07.183Z,81.21
2017-10-11T09:37:36.372Z,81.39
2017-10-11T09:40:04.700Z,81.41
2017-10-11T09:42:32.813Z,81.48
2017-10-11T09:45:00.878Z,81.97
2017-10-11T09:47:28.878Z,81.45
2017-10-11T09:49:56.844Z,81.52
2017-10-11T09:52:25.008Z,81.42
2017-10-11T09:54:53.168Z,81.28
2017-10-11T09:57:21.318Z,81.16
2017-10-11T09:59:49.410Z,80.86
2017-10-11T10:02:17.549Z,80.64
2017-10-11T10:04:46.485Z,81.30
2017-10-11T10:07:14.482Z,81.22
2017-10-11T10:09:42.527Z,81.09
2017-10-11T10:12:10.641Z,81.39
2017-10-11T10:14:38.681Z,81.76
2017-10-11T10:17:06.674Z,81.60
2017-10-11T10:19:34.742Z,81.25
2017-10-11T10:22:03.720Z,81.61
2017-10-11T10:24:31.802Z,81.69
2017-10-11T10:26:59.946Z,81.51
2017-10-11T10:29:27.919Z,81.37
2017-10-11T10:31:56.039Z,81.74
2017-10-11T10:34:24.125Z,82.18
2017-10-11T10:36:52.187Z,81.76
2017-10-11T10:39:20.322Z,81.70
2017-10-11T10:41:48.363Z,81.59
2017-10-11T10:44:16.392Z,81.84
2017-10-11T10:46:44.399Z,81.85
2017-10-11T10:49:12.447Z,82.15
2017-10-11T10:51:40.490Z,82.15
2017-10-11T10:54:08.507Z,82.34
2017-10-11T10:56:36.512Z,81.86
2017-10-11T10:59:05.982Z,80.16
2017-10-11T11:01:34.076Z,80.35
2017-10-11T11:04:02.219Z,80.65
2017-10-11T11:06:30.663Z,80.69
2017-10-11T11:08:58.611Z,80.85
2017-10-11T11:11:26.689Z,80.94
2017-10-11T11:13:54.698Z,80.33
2017-10-11T11:16:22.857Z,80.04
2017-10-11T11:18:51.017Z,80.30
2017-10-11T11:21:19.108Z,80.07
2017-10-11T11:23:47.324Z,80.31
2017-10-11T11:26:15.356Z,79.46
2017-10-11T11:28:43.300Z,79.73
2017-10-11T11:31:11.609Z,78.45
2017-10-11T11:33:39.968Z,78.20
2017-10-11T11:36:08.213Z,78.78
2017-10-11T11:38:36.230Z,78.42
2017-10-11T11:41:04.287Z,79.09
2017-10-11T11:43:32.322Z,78.38
2017-10-11T11:46:00.290Z,78.81
2017-10-11T11:48:28.293Z,78.74
2017-10-11T11:50:56.439Z,78.46
2017-10-11T11:53:24.481Z,78.38
2017-10-11T11:55:52.520Z,77.69
2017-10-11T11:58:20.548Z,78.55
2017-10-11T12:00:48.800Z,78.18
2017-10-11T12:03:16.766Z,78.67
2017-10-11T12:05:44.793Z,78.71
2017-10-11T12:08:12.776Z,77.99
2017-10-11T12:10:40.789Z,77.94
2017-10-11T12:13:09.353Z,77.98
2017-10-11T12:15:39.474Z,77.39
2017-10-11T12:18:07.660Z,77.28
2017-10-11T12:20:35.589Z,77.40
2017-10-11T12:23:03.609Z,77.95
2017-10-11T12:25:31.588Z,78.43
2017-10-11T12:27:59.688Z,78.59
2017-10-11T12:30:28.538Z,79.08
2017-10-11T12:32:56.536Z,79.40
2017-10-11T12:35:25.223Z,79.66
2017-10-11T12:37:53.117Z,79.90
2017-10-11T12:40:21.098Z,80.24
2017-10-11T12:42:49.017Z,80.26
2017-10-11T12:45:17.029Z,79.02
2017-10-11T12:47:44.933Z,79.61
2017-10-11T12:50:12.852Z,79.84
2017-10-11T12:52:40.630Z,79.40
2017-10-11T12:55:08.579Z,79.34
2017-10-11T12:57:36.423Z,79.30
2017-10-11T13:00:04.330Z,78.94
2017-10-11T13:02:33.324Z,79.10
2017-10-11T13:05:01.247Z,78.41
2017-10-11T13:07:29.169Z,78.65
2017-10-11T13:09:57.143Z,78.22
2017-10-11T13:12:25.077Z,78.83
2017-10-11T13:14:52.998Z,78.62
2017-10-11T13:17:20.856Z,78.92
2017-10-11T13:19:48.885Z,78.29
2017-10-11T13:22:16.779Z,78.77
2017-10-11T13:24:44.643Z,78.76
2017-10-11T13:27:12.536Z,78.69
2017-10-11T13:29:40.468Z,79.16
2017-10-11T13:32:08.440Z,78.72
2017-10-11T13:34:36.341Z,78.89
2017-10-11T13:37:04.330Z,79.75
2017-10-11T13:39:32.235Z,80.34
2017-10-11T13:42:01.144Z,80.19
2017-10-11T13:44:29.123Z,79.80
2017-10-11T13:46:57.155Z,79.99
2017-10-11T13:49:25.060Z,79.52
2017-10-11T13:51:52.965Z,79.66
2017-10-11T13:54:21.092Z,79.69
2017-10-11T13:56:49.043Z,79.59
2017-10-11T13:59:17.116Z,79.38
2017-10-11T14:01:45.123Z,79.74
2017-10-11T14:04:13.340Z,78.97
2017-10-11T14:06:41.170Z,79.16
2017-10-11T14:09:09.092Z,78.89
2017-10-11T14:11:37.061Z,79.25
2017-10-11T14:14:04.891Z,79.27
2017-10-11T14:16:32.878Z,78.74
2017-10-11T14:19:00.847Z,78.63
2017-10-11T14:21:28.717Z,79.08
2017-10-11T14:23:56.606Z,78.85
2017-10-11T14:26:24.540Z,78.69
2017-10-11T14:28:52.486Z,78.67
2017-10-11T14:31:20.519Z,78.45
2017-10-11T14:33:48.454Z,77.93
2017-10-11T14:36:16.422Z,77.95
2017-10-11T14:38:44.360Z,78.19
2017-10-11T14:41:12.350Z,78.27
2017-10-11T14:43:40.243Z,78.06
2017-10-11T14:46:08.189Z,77.54
2017-10-11T14:48:36.130Z,77.97
2017-10-11T14:51:04.061Z,78.38
2017-10-11T14:53:31.876Z,78.87
2017-10-11T14:55:59.774Z,78.40
2017-10-11T14:58:27.615Z,77.60
2017-10-11T15:00:55.556Z,78.12
2017-10-11T15:03:23.572Z,78.80
2017-10-11T15:05:51.532Z,79.32
2017-10-11T15:08:19.480Z,79.71
2017-10-11T15:10:47.687Z,79.90
2017-10-11T15:13:15.591Z,79.38
2017-10-11T15:15:43.599Z,79.15
2017-10-11T15:18:11.746Z,79.10
2017-10-11T15:20:39.781Z,79.30
2017-10-11T15:23:07.724Z,79.92
2017-10-11T15:25:35.896Z,80.22
2017-10-11T15:28:04.219Z,80.33
2017-10-11T15:30:31.982Z,80.81
2017-10-11T15:32:59.715Z,80.71
2017-10-11T15:35:27.377Z,80.68
2017-10-11T15:37:55.015Z,80.77
2017-10-11T15:40:23.003Z,80.66
2017-10-11T15:42:50.675Z,81.08
2017-10-11T15:45:18.361Z,81.44
2017-10-11T15:47:46.031Z,81.70
2017-10-11T15:50:13.729Z,81.97
2017-10-11T15:52:41.420Z,81.97
2017-10-11T15:55:09.126Z,82.15
2017-10-11T15:57:36.756Z,82.62
2017-10-11T16:00:04.713Z,82.74
2017-10-11T16:02:32.696Z,82.75
2017-10-11T16:05:00.655Z,83.00
2017-10-11T16:07:28.457Z,83.20
2017-10-11T16:09:57.338Z,83.30
2017-10-11T16:12:25.424Z,83.37
2017-10-11T16:14:53.275Z,83.31
2017-10-11T16:17:21.061Z,83.39
2017-10-11T16:19:48.897Z,83.26
2017-10-11T16:22:16.823Z,83.31
2017-10-11T16:24:46.392Z,83.64
2017-10-11T16:27:14.225Z,83.54
2017-10-11T16:29:42.924Z,84.03
2017-10-11T16:32:10.892Z,84.00
2017-10-11T16:34:39.328Z,84.03
2017-10-11T16:37:08.235Z,83.39
2017-10-11T16:39:36.916Z,82.92
2017-10-11T16:42:05.882Z,82.23
2017-10-11T16:44:37.115Z,82.73
2017-10-11T16:47:06.224Z,83.30
2017-10-11T16:49:35.943Z,83.06
2017-10-11T16:52:04.928Z,82.01
2017-10-11T16:54:33.193Z,82.19
2017-10-11T16:57:01.116Z,82.20
2017-10-11T16:59:29.221Z,81.80
2017-10-11T17:01:57.096Z,81.66
2017-10-11T17:04:25.077Z,81.62
2017-10-11T17:06:52.930Z,81.42
2017-10-11T17:09:20.789Z,81.24
2017-10-11T17:11:48.649Z,80.63
2017-10-11T17:14:16.568Z,80.02
2017-10-11T17:16:44.517Z,80.06
2017-10-11T17:19:12.545Z,80.03
2017-10-11T17:21:40.296Z,80.13
2017-10-11T17:24:08.074Z,79.64
2017-10-11T17:26:35.848Z,80.31
2017-10-11T17:29:03.723Z,79.65
2017-10-11T17:31:31.631Z,79.23
2017-10-11T17:33:59.660Z,77.67
2017-10-11T17:36:27.728Z,77.16
2017-10-11T17:38:55.800Z,76.40
2017-10-11T17:41:24.464Z,76.43
2017-10-11T17:43:53.928Z,76.68
2017-10-11T17:46:22.187Z,77.75
2017-10-11T17:48:49.953Z,78.43
2017-10-11T17:51:19.319Z,78.40
2017-10-11T17:53:47.791Z,78.49
2017-10-11T17:56:16.796Z,78.28
2017-10-11T17:58:44.612Z,78.52
2017-10-11T18:01:12.390Z,78.64
2017-10-11T18:03:40.126Z,78.99
2017-10-11T18:06:07.905Z,79.04
2017-10-11T18:08:35.648Z,79.18
2017-10-11T18:11:03.623Z,79.22
2017-10-11T18:13:32.315Z,79.68
2017-10-11T18:16:00.753Z,80.32
2017-10-11T18:18:29.790Z,80.96
2017-10-11T18:20:57.825Z,81.58
2017-10-11T18:23:29.084Z,82.16
2017-10-11T18:25:59.352Z,82.66
2017-10-11T18:33:51.290Z,83.87
2017-10-11T18:36:20.316Z,84.12
2017-10-11T18:38:50.103Z,84.22
2017-10-11T18:41:20.764Z,84.37
2017-10-11T18:43:53.531Z,84.57
2017-10-11T18:46:24.349Z,84.72
2017-10-11T18:48:54.933Z,84.54
2017-10-11T18:51:26.566Z,84.75
2017-10-11T18:53:56.345Z,84.96
2017-10-11T18:56:26.671Z,85.37
2017-10-11T18:58:55.741Z,85.42
2017-10-11T19:01:25.390Z,85.55
2017-10-11T19:03:53.457Z,85.80
2017-10-11T19:06:21.744Z,85.74
2017-10-11T19:08:49.832Z,85.91
2017-10-11T19:11:18.936Z,85.90
2017-10-11T19:13:47.087Z,85.31
2017-10-11T19:16:15.253Z,84.02
2017-10-11T19:18:44.286Z,83.45
2017-10-11T19:21:13.130Z,83.05
2017-10-11T19:23:41.061Z,82.76
2017-10-11T19:26:09.060Z,82.28
2017-10-11T19:28:44.532Z,82.09
2017-10-11T19:31:18.391Z,81.76
2017-10-11T19:33:54.071Z,81.80
2017-10-11T19:36:23.356Z,81.85
2017-10-11T19:38:53.151Z,81.91
2017-10-11T19:41:24.654Z,82.04
2017-10-11T19:43:52.627Z,82.10
2017-10-11T19:46:20.421Z,82.13
2017-10-11T19:48:48.351Z,82.04
2017-10-11T19:51:16.338Z,82.10
2017-10-11T19:53:44.216Z,82.24
2017-10-11T19:56:11.996Z,82.24
2017-10-11T19:58:40.081Z,82.27
2017-10-11T20:01:08.037Z,82.17
2017-10-11T20:03:36.748Z,81.96
2017-10-11T20:06:04.722Z,82.05
2017-10-11T20:08:32.939Z,82.09
2017-10-11T20:11:01.151Z,82.33
2017-10-11T20:13:30.593Z,82.37
2017-10-11T20:15:59.464Z,82.42
2017-10-11T20:18:27.311Z,82.41
2017-10-11T20:20:55.150Z,82.51
2017-10-11T20:23:23.161Z,82.28
2017-10-11T20:25:51.043Z,82.47
2017-10-11T20:28:19.136Z,82.53
2017-10-11T20:30:47.060Z,82.71
2017-10-11T20:33:14.954Z,82.77
2017-10-11T20:35:43.099Z,82.47
2017-10-11T20:38:13.863Z,82.57
2017-10-11T20:40:41.699Z,82.73
2017-10-11T20:43:09.572Z,82.40
2017-10-11T20:45:37.429Z,82.31
2017-10-11T20:48:05.237Z,82.41
2017-10-11T20:50:33.170Z,82.32
2017-10-11T20:53:02.099Z,82.23
2017-10-11T20:55:30.117Z,81.97
2017-10-11T20:58:01.625Z,81.54
2017-10-11T21:00:36.224Z,81.73
2017-10-11T21:03:04.129Z,81.46
2017-10-11T21:05:31.928Z,81.26
2017-10-11T21:08:00.269Z,80.90
2017-10-11T21:10:28.116Z,80.84
2017-10-11T21:12:55.934Z,80.59
2017-10-11T21:15:23.820Z,80.44
2017-10-11T21:17:51.646Z,80.28
2017-10-11T21:20:19.423Z,80.29
2017-10-11T21:22:47.541Z,80.09
2017-10-11T21:25:15.419Z,80.19
2017-10-11T21:27:43.204Z,79.89
2017-10-11T21:30:11.093Z,80.07
2017-10-11T21:32:39.082Z,80.08
2017-10-11T21:35:07.841Z,80.12
2017-10-11T21:43:03.718Z,79.90
2017-10-11T21:45:32.197Z,79.86
2017-10-11T21:48:00.042Z,79.89
2017-10-11T21:50:28.134Z,79.72
2017-10-11T21:52:56.048Z,79.61
2017-10-11T21:55:23.852Z,79.80
2017-10-11T21:57:51.697Z,79.75
2017-10-11T22:00:19.548Z,79.71
2017-10-11T22:02:47.393Z,79.24
2017-10-11T22:05:15.298Z,79.45
2017-10-11T22:07:43.101Z,79.48
2017-10-11T22:10:10.864Z,79.42
2017-10-11T22:12:38.634Z,79.42
2017-10-11T22:15:06.441Z,79.60
2017-10-11T22:17:34.197Z,79.73
2017-10-11T22:20:01.912Z,79.88
2017-10-11T22:22:29.638Z,80.18
2017-10-11T22:24:57.383Z,80.22
2017-10-11T22:27:25.140Z,80.27
2017-10-11T22:29:52.873Z,80.28
2017-10-11T22:32:20.601Z,80.57
2017-10-11T22:34:48.304Z,80.54
2017-10-11T22:37:16.037Z,80.66
2017-10-11T22:39:43.822Z,80.71
2017-10-11T22:42:11.549Z,80.68
2017-10-11T22:44:39.269Z,81.14
2017-10-11T22:47:07.005Z,81.44
2017-10-11T22:49:34.804Z,81.62
2017-10-11T22:52:02.737Z,81.79
2017-10-11T22:54:30.560Z,82.08
2017-10-11T22:56:58.376Z,81.93
2017-10-11T22:59:26.181Z,82.03
2017-10-11T23:01:53.954Z,82.25
2017-10-11T23:04:22.735Z,82.17
2017-10-11T23:06:50.497Z,82.02
2017-10-11T23:09:18.629Z,81.88
2017-10-11T23:11:46.750Z,81.97
2017-10-11T23:14:14.830Z,82.05
2017-10-11T23:16:42.914Z,82.16
2017-10-11T23:19:11.127Z,82.49
2017-10-11T23:21:39.276Z,82.53
2017-10-11T23:24:10.102Z,82.74
2017-10-11T23:26:38.184Z,82.83
2017-10-11T23:29:06.204Z,82.97
2017-10-11T23:31:35.349Z,82.79
2017-10-11T23:34:03.312Z,81.98
2017-10-11T23:36:31.956Z,82.12
2017-10-11T23:39:00.035Z,81.89
2017-10-11T23:41:28.201Z,81.96
2017-10-11T23:43:56.668Z,81.97
2017-10-11T23:48:57.056Z,81.88
2017-10-11T23:51:25.514Z,82.00
2017-10-11T23:53:53.635Z,82.01
2017-10-11T23:56:21.707Z,81.99
2017-10-11T23:58:49.746Z,82.14
